Time;durP1;ratioP1;P1;durP2;ratioP2;P2;SDS_P1;SDS_P2;PMS_P1;PMS_P2;Temp;Humidity;BMP_temperature;BMP_pressure;BME280_temperature;BME280_humidity;BME280_pressure;Samples;Min_cycle;Max_cycle;Signal;HPM_P1;HPM_P2
2021/06/26 00:01:49;;;;;;;21.73;19.43;;;;;;;;;;5024381;28;20537;-74
2021/06/26 00:04:16;;;;;;;23.30;20.20;;;;;;;;;;5027012;28;20550;-73
2021/06/26 00:06:43;;;;;;;22.93;20.27;;;;;;;;;;5028783;28;20815;-73
2021/06/26 00:09:10;;;;;;;22.87;20.30;;;;;;;;;;5024563;28;20446;-74
2021/06/26 00:11:37;;;;;;;28.60;20.67;;;;;;;;;;5029393;28;20929;-74
2021/06/26 00:14:05;;;;;;;22.00;19.80;;;;;;;;;;5025335;28;20529;-74
2021/06/26 00:16:33;;;;;;;22.93;20.37;;;;;;;;;;5024179;28;20537;-75
2021/06/26 00:19:01;;;;;;;25.23;21.47;;;;;;;;;;5020786;28;20474;-75
2021/06/26 00:21:28;;;;;;;24.17;21.63;;;;;;;;;;5027833;28;20587;-74
2021/06/26 00:23:55;;;;;;;26.37;22.37;;;;;;;;;;5025511;28;20468;-74
2021/06/26 00:26:22;;;;;;;24.50;21.87;;;;;;;;;;5028280;28;20544;-74
2021/06/26 00:28:49;;;;;;;23.73;21.33;;;;;;;;;;5023212;28;20964;-73
2021/06/26 00:31:18;;;;;;;23.83;21.33;;;;;;;;;;5023809;28;20549;-75
2021/06/26 00:33:46;;;;;;;24.27;21.47;;;;;;;;;;5026417;28;20529;-74
2021/06/26 00:36:14;;;;;;;24.83;22.23;;;;;;;;;;5029541;28;20451;-73
2021/06/26 00:38:41;;;;;;;23.30;20.90;;;;;;;;;;5027106;28;20497;-73
2021/06/26 00:41:08;;;;;;;23.07;20.67;;;;;;;;;;5024506;28;20549;-74
2021/06/26 00:43:35;;;;;;;23.60;21.20;;;;;;;;;;5026808;28;20452;-74
2021/06/26 00:46:03;;;;;;;22.10;19.80;;;;;;;;;;5024897;28;20838;-74
2021/06/26 00:48:30;;;;;;;21.30;19.10;;;;;;;;;;5021837;28;20830;-73
2021/06/26 00:50:58;;;;;;;22.73;20.43;;;;;;;;;;5027015;28;20449;-73
2021/06/26 00:53:26;;;;;;;22.57;20.10;;;;;;;;;;5026146;28;20466;-73
2021/06/26 00:55:53;;;;;;;23.20;19.83;;;;;;;;;;5026320;28;20841;-73
2021/06/26 00:58:20;;;;;;;25.40;22.63;;;;;;;;;;5024832;28;20597;-73
2021/06/26 01:00:48;;;;;;;24.23;21.73;;;;;;;;;;5025805;28;20477;-73
2021/06/26 01:03:15;;;;;;;24.70;22.10;;;;;;;;;;5031535;28;20453;-75
2021/06/26 01:05:42;;;;;;;25.50;22.30;;;;;;;;;;5028926;28;21003;-73
2021/06/26 01:08:11;;;;;;;26.67;23.07;;;;;;;;;;5032813;28;20549;-74
2021/06/26 01:10:38;;;;;;;26.53;21.97;;;;;;;;;;5025731;28;20451;-74
2021/06/26 01:13:06;;;;;;;25.40;21.93;;;;;;;;;;5027965;28;20993;-73
2021/06/26 01:15:33;;;;;;;30.63;21.70;;;;;;;;;;5028004;28;20468;-74
2021/06/26 01:18:00;;;;;;;30.50;23.70;;;;;;;;;;5031103;28;20840;-73
2021/06/26 01:20:27;;;;;;;32.20;24.37;;;;;;;;;;5027965;28;20455;-74
2021/06/26 01:22:58;;;;;;;29.90;23.30;;;;;;;;;;5031172;28;20556;-73
2021/06/26 01:25:26;;;;;;;27.17;22.50;;;;;;;;;;5029164;28;20472;-74
2021/06/26 01:27:53;;;;;;;30.50;23.90;;;;;;;;;;5027831;28;20560;-74
2021/06/26 01:30:24;;;;;;;35.20;26.10;;;;;;;;;;5029917;28;20469;-74
2021/06/26 01:32:51;;;;;;;28.90;25.17;;;;;;;;;;5028453;28;20549;-74
2021/06/26 01:35:18;;;;;;;30.23;24.03;;;;;;;;;;5031459;28;20461;-73
2021/06/26 01:37:45;;;;;;;28.30;23.27;;;;;;;;;;5028857;28;20508;-73
2021/06/26 01:40:17;;;;;;;35.07;26.10;;;;;;;;;;5031581;28;20476;-74
2021/06/26 01:42:44;;;;;;;28.33;22.87;;;;;;;;;;5027770;28;20461;-72
2021/06/26 01:45:12;;;;;;;29.40;23.80;;;;;;;;;;5027874;28;21004;-73
2021/06/26 01:47:39;;;;;;;29.90;25.60;;;;;;;;;;5028915;28;20453;-74
2021/06/26 01:50:06;;;;;;;25.77;22.77;;;;;;;;;;5030318;28;20535;-74
2021/06/26 01:52:34;;;;;;;27.37;23.73;;;;;;;;;;5025682;28;20492;-73
2021/06/26 01:55:01;;;;;;;27.37;22.57;;;;;;;;;;5032963;28;20452;-74
2021/06/26 01:57:29;;;;;;;29.07;23.73;;;;;;;;;;5028751;28;20462;-73
2021/06/26 01:59:56;;;;;;;29.03;23.40;;;;;;;;;;5030088;28;20465;-73
2021/06/26 02:02:23;;;;;;;23.83;21.33;;;;;;;;;;5025721;28;20454;-74
2021/06/26 02:04:51;;;;;;;24.80;21.70;;;;;;;;;;5029934;28;20540;-74
2021/06/26 02:07:18;;;;;;;23.80;21.30;;;;;;;;;;5027938;28;20453;-73
2021/06/26 02:09:45;;;;;;;21.73;19.40;;;;;;;;;;5028257;28;20461;-74
2021/06/26 02:12:12;;;;;;;23.17;20.73;;;;;;;;;;5031575;28;20495;-73
2021/06/26 02:14:41;;;;;;;26.03;20.97;;;;;;;;;;5027833;28;20453;-74
2021/06/26 02:17:08;;;;;;;22.03;19.67;;;;;;;;;;5031632;28;20478;-74
2021/06/26 02:19:35;;;;;;;22.23;19.80;;;;;;;;;;5029282;28;20462;-73
2021/06/26 02:22:02;;;;;;;22.73;20.37;;;;;;;;;;5035792;28;20450;-75
2021/06/26 02:24:29;;;;;;;22.53;19.97;;;;;;;;;;5023562;28;20466;-74
2021/06/26 02:26:56;;;;;;;20.80;18.60;;;;;;;;;;5030310;28;20457;-74
2021/06/26 02:29:23;;;;;;;20.47;18.47;;;;;;;;;;5026695;28;20465;-74
2021/06/26 02:31:52;;;;;;;21.50;19.40;;;;;;;;;;5029711;28;20450;-73
2021/06/26 02:34:19;;;;;;;21.30;19.10;;;;;;;;;;5026594;28;20474;-73
2021/06/26 02:36:46;;;;;;;21.37;19.17;;;;;;;;;;5032394;28;20450;-73
2021/06/26 02:39:13;;;;;;;20.43;18.50;;;;;;;;;;5029254;28;20472;-73
2021/06/26 02:41:40;;;;;;;20.23;18.13;;;;;;;;;;5033423;28;20476;-73
2021/06/26 02:44:08;;;;;;;19.90;17.90;;;;;;;;;;5029018;28;20492;-74
2021/06/26 02:46:35;;;;;;;19.93;18.03;;;;;;;;;;5029016;28;20462;-73
2021/06/26 02:49:03;;;;;;;20.37;18.27;;;;;;;;;;5027023;28;20524;-74
2021/06/26 02:51:30;;;;;;;20.80;18.80;;;;;;;;;;5035061;28;20489;-74
2021/06/26 02:53:57;;;;;;;18.83;17.13;;;;;;;;;;5029447;28;21070;-74
2021/06/26 02:56:24;;;;;;;20.10;18.03;;;;;;;;;;5027597;28;20568;-73
2021/06/26 02:58:52;;;;;;;20.53;18.43;;;;;;;;;;5029262;28;20487;-74
2021/06/26 03:01:19;;;;;;;19.30;17.40;;;;;;;;;;5028024;28;20462;-73
2021/06/26 03:03:46;;;;;;;18.10;16.40;;;;;;;;;;5029559;28;20450;-73
2021/06/26 03:06:14;;;;;;;19.30;17.40;;;;;;;;;;5026907;28;20541;-74
2021/06/26 03:08:41;;;;;;;18.27;16.37;;;;;;;;;;5028920;28;20995;-73
2021/06/26 03:11:08;;;;;;;17.53;15.90;;;;;;;;;;5025991;28;20450;-73
2021/06/26 03:13:36;;;;;;;17.30;15.63;;;;;;;;;;5030384;28;20924;-73
2021/06/26 03:16:03;;;;;;;17.17;15.57;;;;;;;;;;5026089;28;20560;-73
2021/06/26 03:18:30;;;;;;;16.30;14.80;;;;;;;;;;5028040;28;20570;-73
2021/06/26 03:20:57;;;;;;;16.70;15.10;;;;;;;;;;5025387;28;20988;-73
2021/06/26 03:23:25;;;;;;;17.27;15.53;;;;;;;;;;5028789;28;20549;-73
2021/06/26 03:25:53;;;;;;;17.40;15.80;;;;;;;;;;5022120;28;20457;-74
2021/06/26 03:28:20;;;;;;;16.77;15.07;;;;;;;;;;5028581;28;20454;-74
2021/06/26 03:30:47;;;;;;;15.97;14.47;;;;;;;;;;5026444;28;20671;-73
2021/06/26 03:33:14;;;;;;;14.50;13.10;;;;;;;;;;5028324;28;20552;-73
2021/06/26 03:35:41;;;;;;;14.83;13.50;;;;;;;;;;5024090;28;20488;-74
2021/06/26 03:38:08;;;;;;;15.70;13.70;;;;;;;;;;5027480;28;20481;-74
2021/06/26 03:40:37;;;;;;;15.23;13.80;;;;;;;;;;5027212;28;20449;-74
2021/06/26 03:43:04;;;;;;;15.73;13.90;;;;;;;;;;5025516;28;20533;-74
2021/06/26 03:45:31;;;;;;;15.80;14.30;;;;;;;;;;5027081;28;20582;-74
2021/06/26 03:47:58;;;;;;;15.37;13.97;;;;;;;;;;5023669;28;20917;-74
2021/06/26 03:50:25;;;;;;;17.30;15.60;;;;;;;;;;5026621;28;20487;-73
2021/06/26 03:52:52;;;;;;;18.93;15.30;;;;;;;;;;5025924;28;20945;-73
2021/06/26 03:55:19;;;;;;;17.80;15.93;;;;;;;;;;5028038;28;20546;-73
2021/06/26 03:57:48;;;;;;;17.90;15.47;;;;;;;;;;5024172;28;20541;-73
2021/06/26 04:00:16;;;;;;;18.57;16.30;;;;;;;;;;5026106;28;20449;-73
2021/06/26 04:02:43;;;;;;;17.93;16.23;;;;;;;;;;5025304;28;20576;-73
2021/06/26 04:05:10;;;;;;;16.97;15.27;;;;;;;;;;5028596;28;20445;-73
2021/06/26 04:07:37;;;;;;;23.30;17.47;;;;;;;;;;5026692;28;20457;-73
2021/06/26 04:10:05;;;;;;;18.73;16.70;;;;;;;;;;5026861;28;20480;-72
2021/06/26 04:12:32;;;;;;;23.90;17.37;;;;;;;;;;5024450;28;20458;-72
2021/06/26 04:15:01;;;;;;;20.00;17.30;;;;;;;;;;5031842;28;20835;-72
2021/06/26 04:17:28;;;;;;;23.97;17.93;;;;;;;;;;5025848;28;20490;-73
2021/06/26 04:19:55;;;;;;;18.83;16.83;;;;;;;;;;5026319;28;20497;-73
2021/06/26 04:22:22;;;;;;;19.53;16.90;;;;;;;;;;5028176;28;20449;-74
2021/06/26 04:24:49;;;;;;;22.97;16.80;;;;;;;;;;5025585;28;20449;-73
2021/06/26 04:27:16;;;;;;;23.67;16.73;;;;;;;;;;5027364;28;20453;-74
2021/06/26 04:29:43;;;;;;;19.00;16.33;;;;;;;;;;5024759;28;20458;-74
2021/06/26 04:32:14;;;;;;;18.53;16.57;;;;;;;;;;5024600;28;20856;-73
2021/06/26 04:34:41;;;;;;;18.37;16.10;;;;;;;;;;5027269;28;20452;-74
2021/06/26 04:37:08;;;;;;;20.67;17.77;;;;;;;;;;5033670;28;20467;-73
2021/06/26 04:39:35;;;;;;;19.30;17.20;;;;;;;;;;5033809;28;20484;-73
2021/06/26 04:42:03;;;;;;;17.83;15.93;;;;;;;;;;5053497;28;20437;-75
2021/06/26 04:44:30;;;;;;;19.63;17.37;;;;;;;;;;5055985;28;20527;-75
2021/06/26 04:46:57;;;;;;;19.63;16.47;;;;;;;;;;5053114;28;20539;-73
2021/06/26 04:49:25;;;;;;;18.13;16.33;;;;;;;;;;5041233;28;20468;-74
2021/06/26 04:51:52;;;;;;;20.10;17.27;;;;;;;;;;5035450;28;20460;-73
2021/06/26 04:54:19;;;;;;;18.50;16.50;;;;;;;;;;5032599;28;20489;-73
2021/06/26 04:56:46;;;;;;;24.37;18.10;;;;;;;;;;5032945;28;20446;-73
2021/06/26 04:59:13;;;;;;;21.53;18.80;;;;;;;;;;5024273;28;20482;-74
2021/06/26 05:01:41;;;;;;;24.43;19.90;;;;;;;;;;5028136;28;20485;-74
2021/06/26 05:04:08;;;;;;;28.17;21.17;;;;;;;;;;5029791;28;20484;-74
2021/06/26 05:06:36;;;;;;;24.20;21.63;;;;;;;;;;5030855;28;20462;-73
2021/06/26 05:09:03;;;;;;;21.70;19.40;;;;;;;;;;5030872;28;20951;-73
2021/06/26 05:11:30;;;;;;;25.50;21.70;;;;;;;;;;5028004;28;20481;-73
2021/06/26 05:13:58;;;;;;;28.70;25.70;;;;;;;;;;5029853;28;20477;-73
2021/06/26 05:16:25;;;;;;;32.50;25.83;;;;;;;;;;5028772;28;20606;-73
2021/06/26 05:18:52;;;;;;;32.30;28.77;;;;;;;;;;5030852;28;20477;-73
2021/06/26 05:21:19;;;;;;;31.70;28.30;;;;;;;;;;5031953;28;20470;-73
2021/06/26 05:23:48;;;;;;;29.43;26.50;;;;;;;;;;5030799;28;20445;-73
2021/06/26 05:26:15;;;;;;;30.00;26.90;;;;;;;;;;5032825;28;20503;-74
2021/06/26 05:28:42;;;;;;;31.60;28.03;;;;;;;;;;5052776;28;20451;-73
2021/06/26 05:31:09;;;;;;;33.67;27.37;;;;;;;;;;5037277;28;20478;-74
2021/06/26 05:33:38;;;;;;;31.80;28.33;;;;;;;;;;5026137;28;20546;-73
2021/06/26 05:36:06;;;;;;;32.43;28.93;;;;;;;;;;5021284;28;20456;-73
2021/06/26 05:38:33;;;;;;;34.73;29.13;;;;;;;;;;5029697;28;20468;-73
2021/06/26 05:41:02;;;;;;;34.00;30.53;;;;;;;;;;5027839;28;20454;-73
2021/06/26 05:43:29;;;;;;;31.80;28.53;;;;;;;;;;5031384;28;20461;-73
2021/06/26 05:45:56;;;;;;;33.37;29.90;;;;;;;;;;5027833;28;20446;-73
2021/06/26 05:48:23;;;;;;;35.47;30.30;;;;;;;;;;5029541;28;20457;-75
2021/06/26 05:50:50;;;;;;;35.30;31.47;;;;;;;;;;5029190;28;20542;-74
2021/06/26 05:53:19;;;;;;;35.90;30.80;;;;;;;;;;5024085;28;20490;-74
2021/06/26 05:55:56;;;;;;;38.23;30.40;;;;;;;;;;5029621;28;20456;-74
2021/06/26 05:58:25;;;;;;;34.67;30.93;;;;;;;;;;5024983;28;20567;-75
2021/06/26 06:00:52;;;;;;;31.27;27.97;;;;;;;;;;5028329;28;20466;-74
2021/06/26 06:03:19;;;;;;;38.90;31.70;;;;;;;;;;5026389;28;20464;-74
2021/06/26 06:05:47;;;;;;;38.93;32.07;;;;;;;;;;5031144;28;20498;-73
2021/06/26 06:08:14;;;;;;;35.10;31.50;;;;;;;;;;5029053;28;20466;-73
2021/06/26 06:10:41;;;;;;;34.47;30.90;;;;;;;;;;5031330;28;20446;-74
2021/06/26 06:13:12;;;;;;;35.27;31.63;;;;;;;;;;5032130;28;21032;-73
2021/06/26 06:15:41;;;;;;;34.77;31.23;;;;;;;;;;5030446;28;20449;-73
2021/06/26 06:18:08;;;;;;;41.43;32.80;;;;;;;;;;5028281;28;20676;-73
2021/06/26 06:20:35;;;;;;;34.67;30.97;;;;;;;;;;5031397;28;20470;-74
2021/06/26 06:23:02;;;;;;;35.00;31.30;;;;;;;;;;5031261;28;20538;-73
2021/06/26 06:25:30;;;;;;;34.57;31.07;;;;;;;;;;5035555;28;20488;-74
2021/06/26 06:27:57;;;;;;;36.53;32.63;;;;;;;;;;5030002;28;20538;-74
2021/06/26 06:30:24;;;;;;;36.33;31.03;;;;;;;;;;5029659;28;20439;-74
2021/06/26 06:32:53;;;;;;;35.03;31.50;;;;;;;;;;5026316;28;20864;-75
2021/06/26 06:35:20;;;;;;;34.87;31.47;;;;;;;;;;5025879;28;20438;-74
2021/06/26 06:37:47;;;;;;;33.70;30.30;;;;;;;;;;5028947;28;20667;-75
2021/06/26 06:40:14;;;;;;;33.50;30.00;;;;;;;;;;5029816;28;20474;-75
2021/06/26 06:42:42;;;;;;;34.67;31.23;;;;;;;;;;5030029;28;20489;-74
2021/06/26 06:45:10;;;;;;;33.20;30.10;;;;;;;;;;5027422;28;21084;-74
2021/06/26 06:47:37;;;;;;;33.20;30.00;;;;;;;;;;5025112;28;20798;-74
2021/06/26 06:50:07;;;;;;;34.20;30.77;;;;;;;;;;5027118;28;20813;-74
2021/06/26 06:52:34;;;;;;;34.60;31.40;;;;;;;;;;5023400;28;20475;-74
2021/06/26 06:55:01;;;;;;;35.77;32.20;;;;;;;;;;5026838;28;20458;-74
2021/06/26 06:57:28;;;;;;;32.73;29.70;;;;;;;;;;5031673;28;20458;-75
2021/06/26 06:59:56;;;;;;;33.03;29.77;;;;;;;;;;5024191;28;20494;-74
2021/06/26 07:02:23;;;;;;;33.60;28.20;;;;;;;;;;5029707;28;20859;-74
2021/06/26 07:04:50;;;;;;;33.87;30.57;;;;;;;;;;5027834;28;20537;-73
2021/06/26 07:07:19;;;;;;;33.60;30.30;;;;;;;;;;5032861;28;20498;-74
2021/06/26 07:09:46;;;;;;;32.50;29.30;;;;;;;;;;5021851;28;20468;-75
2021/06/26 07:12:13;;;;;;;31.53;28.30;;;;;;;;;;5031843;28;20545;-75
2021/06/26 07:14:40;;;;;;;30.93;27.87;;;;;;;;;;5029208;28;20559;-73
2021/06/26 07:17:07;;;;;;;33.70;30.33;;;;;;;;;;5028697;28;20558;-73
2021/06/26 07:19:34;;;;;;;33.30;29.87;;;;;;;;;;5026373;28;20756;-74
2021/06/26 07:22:01;;;;;;;32.53;29.27;;;;;;;;;;5031487;28;20459;-74
2021/06/26 07:24:30;;;;;;;33.33;29.83;;;;;;;;;;5032548;28;20457;-73
2021/06/26 07:26:57;;;;;;;34.90;31.30;;;;;;;;;;5026786;28;20504;-74
2021/06/26 07:29:24;;;;;;;34.00;30.50;;;;;;;;;;5024506;28;20453;-75
2021/06/26 07:31:51;;;;;;;32.37;29.17;;;;;;;;;;5026361;28;20443;-74
2021/06/26 07:34:19;;;;;;;35.03;31.43;;;;;;;;;;5029328;28;20482;-74
2021/06/26 07:36:46;;;;;;;34.17;30.87;;;;;;;;;;5025708;28;20549;-74
2021/06/26 07:39:13;;;;;;;33.40;30.03;;;;;;;;;;5027588;28;20916;-74
2021/06/26 07:41:41;;;;;;;32.50;29.27;;;;;;;;;;5026516;28;20969;-74
2021/06/26 07:44:08;;;;;;;34.80;31.10;;;;;;;;;;5028595;28;20459;-74
2021/06/26 07:46:36;;;;;;;37.43;33.63;;;;;;;;;;5026558;28;20899;-75
2021/06/26 07:49:03;;;;;;;35.43;31.60;;;;;;;;;;5028525;28;21012;-75
2021/06/26 07:51:30;;;;;;;32.70;29.20;;;;;;;;;;5026538;28;20470;-74
2021/06/26 07:53:57;;;;;;;31.30;28.40;;;;;;;;;;5028393;28;20806;-74
2021/06/26 07:56:25;;;;;;;30.83;27.93;;;;;;;;;;5019558;28;20455;-74
2021/06/26 07:58:54;;;;;;;31.57;28.60;;;;;;;;;;5023651;28;20554;-74
2021/06/26 08:01:21;;;;;;;30.50;27.53;;;;;;;;;;5025522;28;20460;-75
2021/06/26 08:03:48;;;;;;;29.17;26.40;;;;;;;;;;5028033;28;20947;-74
2021/06/26 08:06:15;;;;;;;28.27;25.47;;;;;;;;;;5026216;28;20583;-74
2021/06/26 08:08:42;;;;;;;30.93;27.83;;;;;;;;;;5027216;28;20451;-74
2021/06/26 08:11:09;;;;;;;28.37;25.67;;;;;;;;;;5023696;28;20966;-74
2021/06/26 08:13:37;;;;;;;30.13;27.23;;;;;;;;;;5024441;28;20476;-74
2021/06/26 08:16:06;;;;;;;29.43;26.60;;;;;;;;;;5022849;28;20564;-75
2021/06/26 08:18:33;;;;;;;31.80;28.80;;;;;;;;;;5026013;28;20574;-74
2021/06/26 08:21:00;;;;;;;31.20;28.33;;;;;;;;;;5029294;28;20832;-74
2021/06/26 08:23:27;;;;;;;31.30;28.20;;;;;;;;;;5025763;28;20642;-76
2021/06/26 08:25:54;;;;;;;31.57;28.53;;;;;;;;;;5029341;28;20449;-74
2021/06/26 08:28:21;;;;;;;32.33;29.27;;;;;;;;;;5025640;28;20983;-74
2021/06/26 08:30:48;;;;;;;30.50;27.57;;;;;;;;;;5029260;28;20533;-74
2021/06/26 08:33:17;;;;;;;32.77;29.57;;;;;;;;;;5024842;28;20973;-74
2021/06/26 08:35:44;;;;;;;30.83;27.93;;;;;;;;;;5027648;28;20518;-74
2021/06/26 08:38:11;;;;;;;30.83;27.87;;;;;;;;;;5025266;28;20595;-75
2021/06/26 08:40:40;;;;;;;30.37;27.47;;;;;;;;;;5028381;28;20559;-74
2021/06/26 08:43:07;;;;;;;29.90;27.10;;;;;;;;;;5017728;28;20466;-74
2021/06/26 08:45:37;;;;;;;29.30;26.47;;;;;;;;;;5027961;28;20969;-75
2021/06/26 08:48:04;;;;;;;28.57;25.83;;;;;;;;;;5025096;28;20455;-74
2021/06/26 08:50:32;;;;;;;28.93;26.13;;;;;;;;;;5028989;28;20789;-75
2021/06/26 08:53:00;;;;;;;29.63;26.63;;;;;;;;;;5026015;28;20955;-74
2021/06/26 08:55:27;;;;;;;29.50;26.40;;;;;;;;;;5027525;28;20958;-74
2021/06/26 08:57:54;;;;;;;29.60;26.60;;;;;;;;;;5028880;28;20450;-75
2021/06/26 09:00:23;;;;;;;29.30;26.27;;;;;;;;;;5024460;28;20879;-75
2021/06/26 09:02:50;;;;;;;30.27;26.57;;;;;;;;;;5032549;28;20446;-75
2021/06/26 09:05:28;;;;;;;28.53;25.73;;;;;;;;;;5027227;28;20977;-74
2021/06/26 09:07:56;;;;;;;27.50;24.90;;;;;;;;;;5024747;28;20442;-74
2021/06/26 09:10:25;;;;;;;27.43;24.80;;;;;;;;;;5025032;28;20466;-75
2021/06/26 09:12:52;;;;;;;27.53;24.83;;;;;;;;;;5027387;28;20459;-74
2021/06/26 09:15:24;;;;;;;27.87;25.17;;;;;;;;;;5024907;28;20520;-74
2021/06/26 09:17:51;;;;;;;26.87;24.23;;;;;;;;;;5025305;28;20580;-75
2021/06/26 09:20:19;;;;;;;27.13;24.43;;;;;;;;;;5025432;28;21143;-77
2021/06/26 09:22:50;;;;;;;25.47;22.87;;;;;;;;;;5031515;28;20899;-74
2021/06/26 09:25:34;;;;;;;25.20;22.80;;;;;;;;;;5028550;28;20598;-75
2021/06/26 09:28:03;;;;;;;24.47;21.97;;;;;;;;;;5035016;28;20443;-74
2021/06/26 09:30:34;;;;;;;22.00;19.97;;;;;;;;;;5027650;28;20798;-75
2021/06/26 09:33:03;;;;;;;25.23;22.93;;;;;;;;;;5029796;28;20554;-74
2021/06/26 09:35:30;;;;;;;22.17;20.07;;;;;;;;;;5028341;28;20447;-75
2021/06/26 09:37:58;;;;;;;24.70;22.50;;;;;;;;;;5030264;28;20442;-75
2021/06/26 09:40:29;;;;;;;22.30;20.10;;;;;;;;;;5022924;28;20995;-74
2021/06/26 09:42:56;;;;;;;21.87;19.93;;;;;;;;;;5032293;28;20459;-75
2021/06/26 09:45:23;;;;;;;22.40;20.23;;;;;;;;;;5028408;28;20459;-75
2021/06/26 09:47:50;;;;;;;22.03;20.03;;;;;;;;;;5037749;28;20542;-74
2021/06/26 09:50:18;;;;;;;21.70;19.70;;;;;;;;;;5026964;28;20978;-74
2021/06/26 09:52:47;;;;;;;18.77;16.97;;;;;;;;;;5028127;28;20527;-77
2021/06/26 09:55:15;;;;;;;20.17;18.30;;;;;;;;;;5028644;28;20462;-74
2021/06/26 09:57:44;;;;;;;17.83;16.13;;;;;;;;;;5030854;28;20447;-74
2021/06/26 10:00:12;;;;;;;16.53;15.07;;;;;;;;;;5034252;28;20477;-74
2021/06/26 10:02:39;;;;;;;16.17;14.70;;;;;;;;;;5033802;28;20451;-74
2021/06/26 10:05:07;;;;;;;16.40;15.00;;;;;;;;;;5029565;28;21026;-75
2021/06/26 10:07:34;;;;;;;15.67;14.27;;;;;;;;;;5028221;28;20459;-74
2021/06/26 10:10:01;;;;;;;15.70;14.20;;;;;;;;;;5030544;28;20447;-74
2021/06/26 10:12:29;;;;;;;14.87;13.67;;;;;;;;;;5037266;28;20492;-74
2021/06/26 10:14:58;;;;;;;15.40;14.07;;;;;;;;;;5047276;28;20473;-74
2021/06/26 10:17:25;;;;;;;16.77;15.27;;;;;;;;;;5042543;28;20506;-75
2021/06/26 10:19:53;;;;;;;15.43;13.90;;;;;;;;;;5029845;28;20525;-75
2021/06/26 10:22:20;;;;;;;15.53;14.10;;;;;;;;;;5033355;28;20925;-74
2021/06/26 10:24:48;;;;;;;10.47;9.67;;;;;;;;;;5046236;28;20448;-75
2021/06/26 10:27:18;;;;;;;14.20;12.80;;;;;;;;;;5035945;28;21678;-75
2021/06/26 10:29:46;;;;;;;14.27;13.03;;;;;;;;;;5030927;28;20456;-75
2021/06/26 10:32:15;;;;;;;11.70;10.70;;;;;;;;;;5028010;28;20540;-75
2021/06/26 10:34:44;;;;;;;9.57;8.77;;;;;;;;;;5033330;28;20921;-74
2021/06/26 10:37:14;;;;;;;9.07;8.33;;;;;;;;;;5033653;28;20457;-74
2021/06/26 10:39:42;;;;;;;10.03;9.23;;;;;;;;;;5032030;28;20509;-75
2021/06/26 10:42:10;;;;;;;8.80;8.10;;;;;;;;;;5028164;28;20446;-74
2021/06/26 10:44:41;;;;;;;12.43;11.30;;;;;;;;;;5028341;28;20466;-73
2021/06/26 10:47:08;;;;;;;12.33;11.20;;;;;;;;;;5033526;28;20874;-73
2021/06/26 10:49:37;;;;;;;12.00;11.00;;;;;;;;;;5027170;28;20466;-74
2021/06/26 10:52:08;;;;;;;11.03;9.80;;;;;;;;;;5023509;28;20481;-74
2021/06/26 10:54:36;;;;;;;12.40;11.20;;;;;;;;;;5027063;28;20489;-74
2021/06/26 10:57:05;;;;;;;11.37;10.43;;;;;;;;;;5024809;28;20451;-75
2021/06/26 10:59:32;;;;;;;10.83;10.03;;;;;;;;;;5027517;28;20593;-75
2021/06/26 11:02:02;;;;;;;9.37;8.47;;;;;;;;;;5029764;28;20929;-75
2021/06/26 11:04:29;;;;;;;8.60;8.00;;;;;;;;;;5025616;28;20470;-75
2021/06/26 11:07:08;;;;;;;9.23;8.50;;;;;;;;;;5029493;28;20880;-75
2021/06/26 11:09:36;;;;;;;8.73;8.13;;;;;;;;;;5026785;28;20458;-76
2021/06/26 11:12:08;;;;;;;9.80;9.10;;;;;;;;;;5032904;28;20485;-75
2021/06/26 11:14:35;;;;;;;9.97;8.80;;;;;;;;;;5020871;28;20666;-74
2021/06/26 11:17:02;;;;;;;10.27;9.47;;;;;;;;;;5026027;28;20508;-73
2021/06/26 11:19:30;;;;;;;10.10;9.07;;;;;;;;;;5026259;28;20451;-75
2021/06/26 11:21:58;;;;;;;10.87;9.97;;;26.80;73.30;;;;;;5028656;28;20512;-75
2021/06/26 11:24:35;;;;;;;10.00;9.30;;;;;;;;;;5026971;28;20546;-75
2021/06/26 11:27:02;;;;;;;9.43;8.67;;;26.00;56.80;;;;;;5030489;28;20906;-75
2021/06/26 11:29:35;;;;;;;9.07;8.37;;;26.00;55.60;;;;;;5025964;28;20487;-74
2021/06/26 11:32:05;;;;;;;8.73;7.97;;;26.30;55.40;;;;;;5028642;28;20443;-75
2021/06/26 11:34:32;;;;;;;7.50;7.00;;;27.20;54.20;;;;;;5022317;28;20458;-75
2021/06/26 11:37:05;;;;;;;7.77;7.27;;;27.60;53.80;;;;;;5027361;28;20540;-75
2021/06/26 11:39:35;;;;;;;8.40;7.50;;;27.40;53.40;;;;;;5025697;28;20467;-75
2021/06/26 11:42:02;;;;;;;7.23;6.73;;;26.80;54.00;;;;;;5028025;28;20510;-75
2021/06/26 11:44:36;;;;;;;7.50;7.00;;;27.10;54.30;;;;;;5027784;28;20987;-75
2021/06/26 11:47:05;;;;;;;7.90;7.30;;;27.50;54.20;;;;;;5027945;28;20510;-75
2021/06/26 11:49:33;;;;;;;8.57;7.90;;;27.60;54.00;;;;;;5028604;28;20552;-75
2021/06/26 11:52:00;;;;;;;13.63;12.50;;;26.90;54.00;;;;;;5028700;28;20489;-75
2021/06/26 11:54:27;;;;;;;9.53;8.73;;;26.80;54.80;;;;;;5029557;28;20524;-75
2021/06/26 11:56:55;;;;;;;12.07;11.17;;;26.70;54.40;;;;;;5027470;28;20552;-75
2021/06/26 11:59:22;;;;;;;8.93;8.33;;;26.60;54.40;;;;;;5028143;28;20519;-75
2021/06/26 12:01:50;;;;;;;8.10;7.50;;;26.60;53.90;;;;;;5025939;28;20506;-74
2021/06/26 12:04:28;;;;;;;7.60;7.10;;;27.10;54.50;;;;;;5025364;28;20455;-75
2021/06/26 12:06:55;;;;;;;7.10;6.50;;;27.40;53.80;;;;;;5026072;28;20453;-75
2021/06/26 12:09:23;;;;;;;8.73;8.03;;;27.50;53.40;;;;;;5027631;28;20489;-75
2021/06/26 12:11:51;;;;;;;7.60;7.10;;;27.70;53.80;;;;;;5024744;28;20479;-75
2021/06/26 12:14:28;;;;;;;7.60;6.80;;;27.70;52.90;;;;;;5023994;28;20461;-75
2021/06/26 12:17:03;;;;;;;7.23;6.73;;;;;;;;;;5025554;28;20485;-74
2021/06/26 12:19:31;;;;;;;7.80;7.10;;;27.00;52.90;;;;;;5025358;28;20594;-76
2021/06/26 12:21:58;;;;;;;7.00;6.57;;;;;;;;;;5027887;28;20464;-76
2021/06/26 12:24:26;;;;;;;7.60;7.00;;;;;;;;;;5028835;28;20546;-75
2021/06/26 12:27:02;;;;;;;7.10;6.60;;;;;;;;;;5022325;28;20466;-75
2021/06/26 12:29:30;;;;;;;7.03;6.53;;;;;;;;;;5027374;28;20555;-75
2021/06/26 12:31:58;;;;;;;7.47;6.80;;;;;;;;;;5027387;28;20458;-76
2021/06/26 12:34:25;;;;;;;9.07;6.90;;;;;;;;;;5029580;28;20476;-76
2021/06/26 12:36:52;;;;;;;7.37;6.70;;;;;;;;;;5027052;28;20661;-75
2021/06/26 12:39:22;;;;;;;7.90;7.30;;;;;;;;;;5029161;28;20520;-76
2021/06/26 12:41:59;;;;;;;8.27;7.63;;;;;;;;;;5028089;28;20540;-76
2021/06/26 12:44:26;;;;;;;7.20;6.60;;;;;;;;;;5028531;28;20453;-76
2021/06/26 12:46:55;;;;;;;7.47;6.77;;;;;;;;;;5029910;28;20455;-75
2021/06/26 12:49:22;;;;;;;7.30;6.80;;;;;;;;;;5032673;28;20491;-74
2021/06/26 12:51:51;;;;;;;6.40;5.90;;;;;;;;;;5028482;28;20535;-76
2021/06/26 12:54:18;;;;;;;7.63;7.13;;;;;;;;;;5026600;28;20456;-74
2021/06/26 12:56:47;;;;;;;7.13;6.63;;;;;;;;;;5030322;28;20453;-74
2021/06/26 12:59:15;;;;;;;6.67;6.10;;;;;;;;;;5028584;28;20817;-76
2021/06/26 13:01:43;;;;;;;6.83;6.33;;;;;;;;;;5035146;28;20474;-74
2021/06/26 13:04:12;;;;;;;6.90;6.40;;;;;;;;;;5027846;28;20894;-75
2021/06/26 13:06:47;;;;;;;7.50;7.00;;;;;;;;;;5032554;28;20455;-78
2021/06/26 13:09:14;;;;;;;14.83;13.40;;;;;;;;;;5028889;28;20519;-75
2021/06/26 13:11:42;;;;;;;14.87;13.37;;;;;;;;;;5028099;28;20497;-77
2021/06/26 13:14:10;;;;;;;10.43;9.43;;;;;;;;;;5032306;28;20484;-77
2021/06/26 13:16:38;;;;;;;10.60;7.30;;;;;;;;;;5039640;28;20580;-76
2021/06/26 13:19:05;;;;;;;6.77;6.30;;;;;;;;;;5028339;28;20833;-76
2021/06/26 13:21:34;;;;;;;6.23;5.83;;;;;;;;;;5031723;28;20539;-76
2021/06/26 13:24:02;;;;;;;6.33;5.83;;;;;;;;;;5028853;28;20542;-75
2021/06/26 13:26:29;;;;;;;6.43;5.93;;;;;;;;;;5031433;28;20925;-75
2021/06/26 13:28:56;;;;;;;6.30;5.90;;;;;;;;;;5026493;28;20511;-75
2021/06/26 13:31:23;;;;;;;6.90;6.40;;;;;;;;;;5031453;28;20447;-76
2021/06/26 13:33:51;;;;;;;6.70;6.20;;;;;;;;;;5029992;28;20739;-75
2021/06/26 13:36:18;;;;;;;6.87;6.47;;;;;;;;;;5030899;28;20531;-75
2021/06/26 13:38:46;;;;;;;7.37;6.83;;;;;;;;;;5031313;28;20482;-74
2021/06/26 13:41:13;;;;;;;6.30;5.90;;;;;;;;;;5027897;28;20550;-75
2021/06/26 13:43:41;;;;;;;6.00;5.50;;;;;;;;;;5027194;28;20463;-75
2021/06/26 13:46:08;;;;;;;6.30;5.90;;;;;;;;;;5028544;28;20458;-75
2021/06/26 13:48:35;;;;;;;6.60;6.13;;;;;;;;;;5030542;28;20460;-75
2021/06/26 13:51:02;;;;;;;7.10;6.50;;;;;;;;;;5028275;28;20459;-75
2021/06/26 13:53:30;;;;;;;7.27;6.60;;;;;;;;;;5022630;28;20467;-76
2021/06/26 13:55:58;;;;;;;6.10;5.70;;;;;;;;;;5027939;28;20543;-74
2021/06/26 13:58:26;;;;;;;8.17;7.57;;;;;;;;;;5023205;28;20451;-75
2021/06/26 14:00:53;;;;;;;7.40;6.80;;;;;;;;;;5028379;28;20521;-75
2021/06/26 14:03:20;;;;;;;7.87;7.37;;;;;;;;;;5035489;28;20524;-75
2021/06/26 14:05:47;;;;;;;6.67;6.27;;;;;;;;;;5028515;28;20462;-75
2021/06/26 14:08:15;;;;;;;7.00;6.33;;;;;;;;;;5030601;28;20469;-75
2021/06/26 14:10:42;;;;;;;6.40;6.00;;;;;;;;;;5027757;28;20461;-75
2021/06/26 14:13:11;;;;;;;7.37;6.77;;;27.10;53.40;;;;;;5029083;28;20826;-76
2021/06/26 14:15:38;;;;;;;6.93;6.33;;;;;;;;;;5029112;28;20461;-75
2021/06/26 14:18:05;;;;;;;6.40;6.00;;;26.90;54.30;;;;;;5033219;28;20956;-75